sensor_id;sensor_type;location;lat;lon;timestamp;pressure;altitude;pressure_sealevel;temperature;humidity
68366;BME280;55283;51.466;5.478;2022-12-18T00:01:45;102658.44;;;19.09;41.52
68366;BME280;55283;51.466;5.478;2022-12-18T00:04:36;102647.25;;;19.09;41.55
68366;BME280;55283;51.466;5.478;2022-12-18T00:07:02;102641.25;;;19.07;41.60
68366;BME280;55283;51.466;5.478;2022-12-18T00:09:28;102646.84;;;19.07;41.66
68366;BME280;55283;51.466;5.478;2022-12-18T00:11:53;102653.63;;;19.06;41.55
68366;BME280;55283;51.466;5.478;2022-12-18T00:14:19;102660.44;;;19.09;41.61
68366;BME280;55283;51.466;5.478;2022-12-18T00:16:45;102660.44;;;19.09;41.46
68366;BME280;55283;51.466;5.478;2022-12-18T00:19:14;102655.22;;;19.07;41.57
68366;BME280;55283;51.466;5.478;2022-12-18T00:21:40;102650.03;;;19.09;41.60
68366;BME280;55283;51.466;5.478;2022-12-18T00:24:10;102639.66;;;19.06;41.60
68366;BME280;55283;51.466;5.478;2022-12-18T00:26:38;102630.03;;;19.04;41.50
68366;BME280;55283;51.466;5.478;2022-12-18T00:29:08;102632.84;;;19.04;41.79
68366;BME280;55283;51.466;5.478;2022-12-18T00:31:37;102624.81;;;18.98;41.93
68366;BME280;55283;51.466;5.478;2022-12-18T00:34:03;102612.03;;;18.97;41.85
68366;BME280;55283;51.466;5.478;2022-12-18T00:36:37;102603.66;;;18.97;41.79
68366;BME280;55283;51.466;5.478;2022-12-18T00:39:04;102609.25;;;18.97;41.58
68366;BME280;55283;51.466;5.478;2022-12-18T00:41:30;102615.22;;;18.99;41.56
68366;BME280;55283;51.466;5.478;2022-12-18T00:44:18;102610.84;;;19.02;41.46
68366;BME280;55283;51.466;5.478;2022-12-18T00:46:47;102612.84;;;19.02;41.55
68366;BME280;55283;51.466;5.478;2022-12-18T00:49:14;102606.06;;;19.03;41.47
68366;BME280;55283;51.466;5.478;2022-12-18T00:51:42;102608.09;;;19.06;41.55
68366;BME280;55283;51.466;5.478;2022-12-18T00:54:08;102614.50;;;19.06;41.38
68366;BME280;55283;51.466;5.478;2022-12-18T00:56:35;102614.88;;;19.08;41.43
68366;BME280;55283;51.466;5.478;2022-12-18T00:59:04;102608.13;;;19.13;41.30
68366;BME280;55283;51.466;5.478;2022-12-18T01:01:30;102612.94;;;19.12;41.12
68366;BME280;55283;51.466;5.478;2022-12-18T01:03:57;102621.31;;;19.12;41.07
68366;BME280;55283;51.466;5.478;2022-12-18T01:06:23;102622.91;;;19.13;41.14
68366;BME280;55283;51.466;5.478;2022-12-18T01:08:51;102623.72;;;19.14;41.34
68366;BME280;55283;51.466;5.478;2022-12-18T01:11:19;102626.09;;;19.12;41.29
68366;BME280;55283;51.466;5.478;2022-12-18T01:13:45;102623.69;;;19.10;41.38
68366;BME280;55283;51.466;5.478;2022-12-18T01:16:14;102636.47;;;19.11;40.92
68366;BME280;55283;51.466;5.478;2022-12-18T01:18:42;102635.66;;;19.11;41.11
68366;BME280;55283;51.466;5.478;2022-12-18T01:21:09;102630.47;;;19.06;41.33
68366;BME280;55283;51.466;5.478;2022-12-18T01:23:38;102632.06;;;19.07;41.34
68366;BME280;55283;51.466;5.478;2022-12-18T01:26:06;102634.44;;;19.08;41.40
68366;BME280;55283;51.466;5.478;2022-12-18T01:28:35;102634.84;;;19.07;41.22
68366;BME280;55283;51.466;5.478;2022-12-18T01:31:22;102631.63;;;19.05;41.38
68366;BME280;55283;51.466;5.478;2022-12-18T01:33:49;102631.63;;;19.05;41.21
68366;BME280;55283;51.466;5.478;2022-12-18T01:36:30;102627.63;;;19.02;41.47
68366;BME280;55283;51.466;5.478;2022-12-18T01:39:05;102625.22;;;19.00;41.54
68366;BME280;55283;51.466;5.478;2022-12-18T01:41:32;102629.19;;;18.99;41.09
68366;BME280;55283;51.466;5.478;2022-12-18T01:49:48;102625.97;;;18.94;41.44
68366;BME280;55283;51.466;5.478;2022-12-18T01:52:14;102621.59;;;18.96;41.31
68366;BME280;55283;51.466;5.478;2022-12-18T01:57:05;102624.75;;;18.91;41.42
68366;BME280;55283;51.466;5.478;2022-12-18T01:59:32;102621.22;;;18.98;41.19
68366;BME280;55283;51.466;5.478;2022-12-18T02:02:02;102610.75;;;18.88;41.34
68366;BME280;55283;51.466;5.478;2022-12-18T02:04:30;102621.59;;;18.96;41.29
68366;BME280;55283;51.466;5.478;2022-12-18T02:09:46;102610.41;;;18.96;41.27
68366;BME280;55283;51.466;5.478;2022-12-18T02:15:00;102604.03;;;18.96;41.26
68366;BME280;55283;51.466;5.478;2022-12-18T02:17:47;102604.44;;;18.98;41.31
68366;BME280;55283;51.466;5.478;2022-12-18T02:20:28;102610.84;;;18.98;41.26
68366;BME280;55283;51.466;5.478;2022-12-18T02:26:14;102612.44;;;18.99;41.02
68366;BME280;55283;51.466;5.478;2022-12-18T02:28:46;102601.69;;;19.05;41.07
68366;BME280;55283;51.466;5.478;2022-12-18T02:31:20;102605.25;;;19.02;40.90
68366;BME280;55283;51.466;5.478;2022-12-18T02:33:50;102616.50;;;19.06;41.09
68366;BME280;55283;51.466;5.478;2022-12-18T02:36:18;102608.47;;;19.04;41.14
68366;BME280;55283;51.466;5.478;2022-12-18T02:38:45;102608.47;;;19.04;41.16
68366;BME280;55283;51.466;5.478;2022-12-18T02:41:15;102597.66;;;19.03;41.16
68366;BME280;55283;51.466;5.478;2022-12-18T02:43:52;102606.06;;;19.03;40.96
68366;BME280;55283;51.466;5.478;2022-12-18T02:46:31;102596.88;;;19.02;41.23
68366;BME280;55283;51.466;5.478;2022-12-18T02:49:53;102587.31;;;19.03;41.05
68366;BME280;55283;51.466;5.478;2022-12-18T02:51:54;102579.72;;;19.00;41.07
68366;BME280;55283;51.466;5.478;2022-12-18T03:00:07;102578.09;;;18.99;40.99
68366;BME280;55283;51.466;5.478;2022-12-18T03:05:13;102582.88;;;18.98;40.98
68366;BME280;55283;51.466;5.478;2022-12-18T03:07:48;102577.28;;;18.95;41.14
68366;BME280;55283;51.466;5.478;2022-12-18T03:15:41;102562.88;;;18.89;41.42
68366;BME280;55283;51.466;5.478;2022-12-18T03:18:08;102555.69;;;18.92;41.16
68366;BME280;55283;51.466;5.478;2022-12-18T03:20:39;102559.28;;;18.92;40.97
68366;BME280;55283;51.466;5.478;2022-12-18T03:23:11;102558.50;;;18.92;41.01
68366;BME280;55283;51.466;5.478;2022-12-18T03:28:05;102560.50;;;18.95;41.06
68366;BME280;55283;51.466;5.478;2022-12-18T03:30:35;102558.13;;;18.97;40.98
68366;BME280;55283;51.466;5.478;2022-12-18T03:33:08;102566.53;;;19.00;41.15
68366;BME280;55283;51.466;5.478;2022-12-18T03:35:40;102563.75;;;19.04;40.93
68366;BME280;55283;51.466;5.478;2022-12-18T03:38:07;102566.19;;;19.06;41.02
68366;BME280;55283;51.466;5.478;2022-12-18T03:43:28;102567.38;;;19.08;41.02
68366;BME280;55283;51.466;5.478;2022-12-18T03:46:04;102564.19;;;19.06;40.81
68366;BME280;55283;51.466;5.478;2022-12-18T03:48:38;102568.56;;;19.07;40.85
68366;BME280;55283;51.466;5.478;2022-12-18T03:51:15;102564.19;;;19.06;40.77
68366;BME280;55283;51.466;5.478;2022-12-18T03:53:48;102554.16;;;19.05;40.75
68366;BME280;55283;51.466;5.478;2022-12-18T03:56:22;102551.38;;;19.05;40.65
68366;BME280;55283;51.466;5.478;2022-12-18T03:58:50;102543.41;;;19.04;40.75
68366;BME280;55283;51.466;5.478;2022-12-18T04:01:22;102535.81;;;19.04;40.75
68366;BME280;55283;51.466;5.478;2022-12-18T04:03:49;102530.59;;;19.03;40.75
68366;BME280;55283;51.466;5.478;2022-12-18T04:06:18;102533.38;;;19.03;40.72
68366;BME280;55283;51.466;5.478;2022-12-18T04:08:47;102521.03;;;19.00;40.83
68366;BME280;55283;51.466;5.478;2022-12-18T04:11:15;102518.63;;;19.02;40.73
68366;BME280;55283;51.466;5.478;2022-12-18T04:13:42;102522.19;;;18.99;40.81
68366;BME280;55283;51.466;5.478;2022-12-18T04:16:08;102515.81;;;18.98;40.86
68366;BME280;55283;51.466;5.478;2022-12-18T04:18:34;102497.00;;;18.88;40.84
68366;BME280;55283;51.466;5.478;2022-12-18T04:21:02;102507.00;;;18.96;40.89
68366;BME280;55283;51.466;5.478;2022-12-18T04:26:01;102503.00;;;18.94;40.93
68366;BME280;55283;51.466;5.478;2022-12-18T04:28:30;102505.78;;;18.94;40.79
68366;BME280;55283;51.466;5.478;2022-12-18T04:30:55;102509.00;;;18.92;40.94
68366;BME280;55283;51.466;5.478;2022-12-18T04:33:20;102512.56;;;18.89;40.88
68366;BME280;55283;51.466;5.478;2022-12-18T04:35:48;102520.16;;;18.89;40.92
68366;BME280;55283;51.466;5.478;2022-12-18T04:38:13;102517.38;;;18.89;41.06
68366;BME280;55283;51.466;5.478;2022-12-18T04:40:41;102517.38;;;18.89;40.81
68366;BME280;55283;51.466;5.478;2022-12-18T04:43:07;102522.94;;;18.89;40.77
68366;BME280;55283;51.466;5.478;2022-12-18T04:45:32;102526.53;;;18.89;40.88
68366;BME280;55283;51.466;5.478;2022-12-18T04:47:59;102530.13;;;18.90;40.59
68366;BME280;55283;51.466;5.478;2022-12-18T04:50:24;102532.13;;;18.89;40.69
68366;BME280;55283;51.466;5.478;2022-12-18T04:52:52;102540.50;;;18.86;40.75
68366;BME280;55283;51.466;5.478;2022-12-18T04:55:18;102545.25;;;18.85;40.63
68366;BME280;55283;51.466;5.478;2022-12-18T04:57:49;102543.69;;;18.88;40.77
68366;BME280;55283;51.466;5.478;2022-12-18T05:00:14;102547.69;;;18.87;40.78
68366;BME280;55283;51.466;5.478;2022-12-18T05:02:40;102546.88;;;18.86;40.68
68366;BME280;55283;51.466;5.478;2022-12-18T05:05:06;102539.72;;;18.89;40.68
68366;BME280;55283;51.466;5.478;2022-12-18T05:07:32;102547.31;;;18.88;40.80
68366;BME280;55283;51.466;5.478;2022-12-18T05:09:57;102545.31;;;18.89;40.88
68366;BME280;55283;51.466;5.478;2022-12-18T05:12:32;102541.72;;;18.92;40.65
68366;BME280;55283;51.466;5.478;2022-12-18T05:14:58;102548.50;;;18.91;40.82
68366;BME280;55283;51.466;5.478;2022-12-18T05:17:23;102555.34;;;18.97;40.73
68366;BME280;55283;51.466;5.478;2022-12-18T05:19:48;102551.34;;;18.98;40.63
68366;BME280;55283;51.466;5.478;2022-12-18T05:22:14;102554.56;;;19.00;40.70
68366;BME280;55283;51.466;5.478;2022-12-18T05:24:39;102535.00;;;19.00;40.64
68366;BME280;55283;51.466;5.478;2022-12-18T05:27:05;102542.59;;;19.03;40.49
68366;BME280;55283;51.466;5.478;2022-12-18T05:29:30;102545.41;;;19.03;40.44
68366;BME280;55283;51.466;5.478;2022-12-18T05:31:55;102531.78;;;18.98;40.52
68366;BME280;55283;51.466;5.478;2022-12-18T05:34:24;102537.00;;;19.03;40.44
68366;BME280;55283;51.466;5.478;2022-12-18T05:36:49;102541.03;;;19.06;40.52
68366;BME280;55283;51.466;5.478;2022-12-18T05:39:14;102535.00;;;19.04;40.51
68366;BME280;55283;51.466;5.478;2022-12-18T05:41:40;102531.41;;;19.03;40.49
68366;BME280;55283;51.466;5.478;2022-12-18T05:44:05;102539.41;;;19.05;40.42
68366;BME280;55283;51.466;5.478;2022-12-18T05:46:31;102533.38;;;19.03;40.42
68366;BME280;55283;51.466;5.478;2022-12-18T05:49:00;102528.63;;;19.03;40.34
68366;BME280;55283;51.466;5.478;2022-12-18T05:51:26;102524.22;;;19.02;40.70
68366;BME280;55283;51.466;5.478;2022-12-18T05:53:54;102522.63;;;19.01;40.53
68366;BME280;55283;51.466;5.478;2022-12-18T05:56:21;102535.38;;;19.02;40.53
68366;BME280;55283;51.466;5.478;2022-12-18T05:58:51;102531.00;;;19.01;40.62
68366;BME280;55283;51.466;5.478;2022-12-18T06:01:25;102529.41;;;19.00;40.49
68366;BME280;55283;51.466;5.478;2022-12-18T06:03:51;102512.22;;;18.98;40.40
68366;BME280;55283;51.466;5.478;2022-12-18T06:06:20;102516.22;;;18.97;40.30
68366;BME280;55283;51.466;5.478;2022-12-18T06:08:49;102517.38;;;18.96;40.46
68366;BME280;55283;51.466;5.478;2022-12-18T06:11:18;102514.22;;;18.97;40.56
68366;BME280;55283;51.466;5.478;2022-12-18T06:13:54;102508.59;;;18.94;40.50
68366;BME280;55283;51.466;5.478;2022-12-18T06:16:19;102520.97;;;18.93;40.36
68366;BME280;55283;51.466;5.478;2022-12-18T06:18:45;102523.75;;;18.93;40.36
68366;BME280;55283;51.466;5.478;2022-12-18T06:21:11;102520.97;;;18.93;40.65
68366;BME280;55283;51.466;5.478;2022-12-18T06:23:39;102521.75;;;18.90;40.53
68366;BME280;55283;51.466;5.478;2022-12-18T06:26:13;102524.13;;;18.88;40.53
68366;BME280;55283;51.466;5.478;2022-12-18T06:28:39;102520.53;;;18.87;40.63
68366;BME280;55283;51.466;5.478;2022-12-18T06:31:05;102524.09;;;18.84;40.63
68366;BME280;55283;51.466;5.478;2022-12-18T06:33:32;102528.47;;;18.82;40.63
68366;BME280;55283;51.466;5.478;2022-12-18T06:36:03;102518.09;;;18.78;40.98
68366;BME280;55283;51.466;5.478;2022-12-18T06:38:28;102520.09;;;18.82;41.04
68366;BME280;55283;51.466;5.478;2022-12-18T06:40:56;102525.31;;;18.87;41.20
68366;BME280;55283;51.466;5.478;2022-12-18T06:43:24;102525.41;;;18.97;41.53
68366;BME280;55283;51.466;5.478;2022-12-18T06:45:58;102520.16;;;18.89;41.01
68366;BME280;55283;51.466;5.478;2022-12-18T06:48:24;102520.47;;;18.76;40.62
68366;BME280;55283;51.466;5.478;2022-12-18T06:50:49;102518.38;;;18.66;40.73
68366;BME280;55283;51.466;5.478;2022-12-18T06:53:16;102514.34;;;18.60;40.87
68366;BME280;55283;51.466;5.478;2022-12-18T06:55:42;102511.53;;;18.57;41.01
68366;BME280;55283;51.466;5.478;2022-12-18T06:58:07;102506.75;;;18.57;40.99
68366;BME280;55283;51.466;5.478;2022-12-18T07:00:33;102498.75;;;18.55;41.02
68366;BME280;55283;51.466;5.478;2022-12-18T07:03:01;102511.13;;;18.58;40.98
68366;BME280;55283;51.466;5.478;2022-12-18T07:05:26;102509.53;;;18.57;40.94
68366;BME280;55283;51.466;5.478;2022-12-18T07:07:51;102511.53;;;18.57;41.01
68366;BME280;55283;51.466;5.478;2022-12-18T07:10:19;102505.94;;;18.57;41.01
68366;BME280;55283;51.466;5.478;2022-12-18T07:12:46;102507.25;;;18.73;40.62
68366;BME280;55283;51.466;5.478;2022-12-18T07:15:11;102489.22;;;18.64;40.62
68366;BME280;55283;51.466;5.478;2022-12-18T07:17:39;102486.06;;;18.65;40.76
68366;BME280;55283;51.466;5.478;2022-12-18T07:20:05;102488.13;;;18.75;40.12
68366;BME280;55283;51.466;5.478;2022-12-18T07:22:31;102482.19;;;18.81;40.17
68366;BME280;55283;51.466;5.478;2022-12-18T07:24:56;102472.56;;;18.74;39.74
68366;BME280;55283;51.466;5.478;2022-12-18T07:27:22;102466.50;;;18.65;39.22
68366;BME280;55283;51.466;5.478;2022-12-18T07:29:48;102452.91;;;18.60;39.47
68366;BME280;55283;51.466;5.478;2022-12-18T07:32:13;102447.31;;;18.60;39.13
68366;BME280;55283;51.466;5.478;2022-12-18T07:34:39;102443.75;;;18.67;39.90
68366;BME280;55283;51.466;5.478;2022-12-18T07:37:06;102443.84;;;18.74;39.73
68366;BME280;55283;51.466;5.478;2022-12-18T07:39:32;102450.63;;;18.76;40.18
68366;BME280;55283;51.466;5.478;2022-12-18T07:41:57;102455.81;;;18.74;38.87
68366;BME280;55283;51.466;5.478;2022-12-18T07:44:44;102446.63;;;18.74;38.73
68366;BME280;55283;51.466;5.478;2022-12-18T07:47:09;102440.97;;;18.70;38.40
68366;BME280;55283;51.466;5.478;2022-12-18T07:49:35;102427.00;;;18.70;38.61
68366;BME280;55283;51.466;5.478;2022-12-18T07:52:00;102428.25;;;18.76;38.66
68366;BME280;55283;51.466;5.478;2022-12-18T07:54:27;102418.72;;;18.77;38.53
68366;BME280;55283;51.466;5.478;2022-12-18T07:56:55;102417.50;;;18.75;38.51
68366;BME280;55283;51.466;5.478;2022-12-18T07:59:24;102412.69;;;18.75;39.01
68366;BME280;55283;51.466;5.478;2022-12-18T08:01:51;102402.38;;;18.80;38.97
68366;BME280;55283;51.466;5.478;2022-12-18T08:04:19;102399.16;;;18.77;39.27
68366;BME280;55283;51.466;5.478;2022-12-18T08:06:44;102404.75;;;18.77;39.32
68366;BME280;55283;51.466;5.478;2022-12-18T08:09:10;102427.09;;;18.77;39.64
68366;BME280;55283;51.466;5.478;2022-12-18T08:11:35;102418.34;;;18.83;39.76
68366;BME280;55283;51.466;5.478;2022-12-18T08:14:01;102421.13;;;18.83;40.10
68366;BME280;55283;51.466;5.478;2022-12-18T08:16:26;102424.72;;;18.83;39.99
68366;BME280;55283;51.466;5.478;2022-12-18T08:18:53;102412.41;;;18.91;40.07
68366;BME280;55283;51.466;5.478;2022-12-18T08:21:29;102415.16;;;18.88;40.56
68366;BME280;55283;51.466;5.478;2022-12-18T08:23:57;102427.53;;;18.83;37.80
68366;BME280;55283;51.466;5.478;2022-12-18T08:26:26;102427.00;;;18.67;34.54
68366;BME280;55283;51.466;5.478;2022-12-18T08:28:54;102437.34;;;18.59;33.83
68366;BME280;55283;51.466;5.478;2022-12-18T08:31:23;102427.34;;;18.62;37.07
68366;BME280;55283;51.466;5.478;2022-12-18T08:33:50;102418.63;;;18.67;37.69
68366;BME280;55283;51.466;5.478;2022-12-18T08:36:17;102424.66;;;18.72;38.47
68366;BME280;55283;51.466;5.478;2022-12-18T08:38:42;102429.81;;;18.70;38.96
68366;BME280;55283;51.466;5.478;2022-12-18T08:41:10;102437.47;;;18.81;38.98
68366;BME280;55283;51.466;5.478;2022-12-18T08:43:36;102419.94;;;18.80;38.40
68366;BME280;55283;51.466;5.478;2022-12-18T08:46:21;102414.75;;;18.86;38.72
68366;BME280;55283;51.466;5.478;2022-12-18T08:48:50;102409.59;;;18.91;38.64
68366;BME280;55283;51.466;5.478;2022-12-18T08:51:22;102406.03;;;18.98;39.23
68366;BME280;55283;51.466;5.478;2022-12-18T08:53:50;102397.22;;;18.99;39.36
68366;BME280;55283;51.466;5.478;2022-12-18T08:56:16;102392.84;;;19.02;39.58
68366;BME280;55283;51.466;5.478;2022-12-18T08:58:42;102402.44;;;19.05;39.43
68366;BME280;55283;51.466;5.478;2022-12-18T09:01:11;102391.69;;;19.07;39.63
68366;BME280;55283;51.466;5.478;2022-12-18T09:03:37;102391.69;;;19.14;39.59
68366;BME280;55283;51.466;5.478;2022-12-18T09:06:03;102386.50;;;19.12;39.66
68366;BME280;55283;51.466;5.478;2022-12-18T09:08:29;102382.91;;;19.12;39.75
68366;BME280;55283;51.466;5.478;2022-12-18T09:10:55;102393.31;;;19.15;39.82
68366;BME280;55283;51.466;5.478;2022-12-18T09:13:23;102408.06;;;19.15;39.69
68366;BME280;55283;51.466;5.478;2022-12-18T09:15:53;102418.84;;;19.13;39.65
68366;BME280;55283;51.466;5.478;2022-12-18T09:18:20;102412.47;;;19.13;40.09
68366;BME280;55283;51.466;5.478;2022-12-18T09:20:50;102414.88;;;19.18;40.12
68366;BME280;55283;51.466;5.478;2022-12-18T09:23:17;102424.84;;;19.15;39.88
68366;BME280;55283;51.466;5.478;2022-12-18T09:25:43;102417.66;;;19.14;39.49
68366;BME280;55283;51.466;5.478;2022-12-18T09:28:18;102418.84;;;19.13;39.35
68366;BME280;55283;51.466;5.478;2022-12-18T09:30:49;102415.25;;;19.16;39.70
68366;BME280;55283;51.466;5.478;2022-12-18T09:33:15;102406.50;;;19.14;39.86
68366;BME280;55283;51.466;5.478;2022-12-18T09:35:45;102398.50;;;19.16;40.05
68366;BME280;55283;51.466;5.478;2022-12-18T09:38:18;102397.31;;;19.17;39.99
68366;BME280;55283;51.466;5.478;2022-12-18T09:40:56;102392.50;;;19.14;40.23
68366;BME280;55283;51.466;5.478;2022-12-18T09:43:32;102389.69;;;19.11;40.49
68366;BME280;55283;51.466;5.478;2022-12-18T09:46:16;102390.09;;;19.09;40.41
68366;BME280;55283;51.466;5.478;2022-12-18T09:48:47;102394.47;;;19.10;40.29
68366;BME280;55283;51.466;5.478;2022-12-18T09:51:29;102391.69;;;19.10;40.86
68366;BME280;55283;51.466;5.478;2022-12-18T09:54:16;102381.28;;;19.07;40.42
68366;BME280;55283;51.466;5.478;2022-12-18T09:56:43;102362.53;;;19.08;40.98
68366;BME280;55283;51.466;5.478;2022-12-18T09:59:36;102352.13;;;19.08;41.12
68366;BME280;55283;51.466;5.478;2022-12-18T10:02:19;102368.13;;;19.08;40.98
68366;BME280;55283;51.466;5.478;2022-12-18T10:05:06;102374.50;;;19.08;40.91
68366;BME280;55283;51.466;5.478;2022-12-18T10:08:00;102377.28;;;19.08;40.95
68366;BME280;55283;51.466;5.478;2022-12-18T10:16:17;102383.72;;;19.12;41.31
68366;BME280;55283;51.466;5.478;2022-12-18T10:19:20;102383.72;;;19.12;41.25
68366;BME280;55283;51.466;5.478;2022-12-18T10:21:59;102365.31;;;19.11;40.85
68366;BME280;55283;51.466;5.478;2022-12-18T10:24:53;102370.13;;;19.11;41.06
68366;BME280;55283;51.466;5.478;2022-12-18T10:27:30;102364.16;;;19.12;41.32
68366;BME280;55283;51.466;5.478;2022-12-18T10:29:56;102359.72;;;19.11;41.11
68366;BME280;55283;51.466;5.478;2022-12-18T10:32:24;102359.34;;;19.13;40.98
68366;BME280;55283;51.466;5.478;2022-12-18T10:34:53;102350.16;;;19.12;40.90
68366;BME280;55283;51.466;5.478;2022-12-18T10:37:22;102340.19;;;19.15;40.80
68366;BME280;55283;51.466;5.478;2022-12-18T10:40:16;102331.00;;;19.14;41.02
68366;BME280;55283;51.466;5.478;2022-12-18T10:42:42;102330.59;;;19.12;40.92
68366;BME280;55283;51.466;5.478;2022-12-18T10:45:16;102329.81;;;19.12;40.92
68366;BME280;55283;51.466;5.478;2022-12-18T10:47:49;102316.63;;;19.12;41.00
68366;BME280;55283;51.466;5.478;2022-12-18T10:50:34;102325.41;;;19.11;41.11
68366;BME280;55283;51.466;5.478;2022-12-18T10:53:03;102316.63;;;19.12;41.41
68366;BME280;55283;51.466;5.478;2022-12-18T10:55:34;102310.25;;;19.12;41.21
68366;BME280;55283;51.466;5.478;2022-12-18T10:58:30;102310.63;;;19.07;41.17
68366;BME280;55283;51.466;5.478;2022-12-18T11:01:17;102305.03;;;19.10;41.25
68366;BME280;55283;51.466;5.478;2022-12-18T11:03:46;102296.66;;;19.10;41.96
68366;BME280;55283;51.466;5.478;2022-12-18T11:06:24;102293.44;;;19.08;41.73
68366;BME280;55283;51.466;5.478;2022-12-18T11:08:59;102291.44;;;19.05;42.14
68366;BME280;55283;51.466;5.478;2022-12-18T11:11:26;102288.25;;;19.10;41.80
68366;BME280;55283;51.466;5.478;2022-12-18T11:16:26;102300.25;;;19.07;42.49
68366;BME280;55283;51.466;5.478;2022-12-18T11:18:55;102301.44;;;19.06;42.57
68366;BME280;55283;51.466;5.478;2022-12-18T11:21:39;102293.84;;;19.03;42.56
68366;BME280;55283;51.466;5.478;2022-12-18T11:24:30;102300.25;;;19.07;42.90
68366;BME280;55283;51.466;5.478;2022-12-18T11:27:01;102287.84;;;19.08;42.78
68366;BME280;55283;51.466;5.478;2022-12-18T11:29:39;102280.25;;;19.05;43.00
68366;BME280;55283;51.466;5.478;2022-12-18T11:35:17;102265.88;;;18.96;43.16
68366;BME280;55283;51.466;5.478;2022-12-18T11:40:45;102271.47;;;18.89;43.79
68366;BME280;55283;51.466;5.478;2022-12-18T11:43:26;102263.91;;;19.07;43.54
68366;BME280;55283;51.466;5.478;2022-12-18T11:46:07;102266.69;;;19.11;43.45
68366;BME280;55283;51.466;5.478;2022-12-18T11:48:37;102260.72;;;19.16;43.51
68366;BME280;55283;51.466;5.478;2022-12-18T11:51:15;102258.34;;;19.14;43.95
68366;BME280;55283;51.466;5.478;2022-12-18T11:53:54;102260.31;;;19.10;44.04
68366;BME280;55283;51.466;5.478;2022-12-18T11:56:32;102267.91;;;19.13;44.00
68366;BME280;55283;51.466;5.478;2022-12-18T11:59:33;102250.34;;;19.09;43.90
68366;BME280;55283;51.466;5.478;2022-12-18T12:02:11;102251.13;;;19.06;43.84
68366;BME280;55283;51.466;5.478;2022-12-18T12:13:45;102227.97;;;19.06;43.93
68366;BME280;55283;51.466;5.478;2022-12-18T12:16:39;102213.19;;;19.02;44.12
68366;BME280;55283;51.466;5.478;2022-12-18T12:21:44;102226.38;;;19.05;43.97
68366;BME280;55283;51.466;5.478;2022-12-18T12:24:39;102210.00;;;19.03;43.74
68366;BME280;55283;51.466;5.478;2022-12-18T12:32:55;102210.81;;;19.07;42.95
68366;BME280;55283;51.466;5.478;2022-12-18T12:35:52;102205.59;;;19.02;43.87
68366;BME280;55283;51.466;5.478;2022-12-18T12:38:27;102202.44;;;19.04;43.72
68366;BME280;55283;51.466;5.478;2022-12-18T12:41:00;102193.25;;;19.03;43.61
68366;BME280;55283;51.466;5.478;2022-12-18T12:43:37;102194.41;;;19.02;43.58
68366;BME280;55283;51.466;5.478;2022-12-18T12:46:09;102184.84;;;18.99;43.93
68366;BME280;55283;51.466;5.478;2022-12-18T12:51:21;102163.28;;;18.89;44.03
68366;BME280;55283;51.466;5.478;2022-12-18T12:53:48;102165.69;;;18.98;43.14
68366;BME280;55283;51.466;5.478;2022-12-18T12:56:16;102168.47;;;18.98;42.95
68366;BME280;55283;51.466;5.478;2022-12-18T13:07:00;102153.31;;;18.99;42.95
68366;BME280;55283;51.466;5.478;2022-12-18T13:09:31;102160.50;;;19.00;42.83
68366;BME280;55283;51.466;5.478;2022-12-18T13:12:05;102148.94;;;18.98;42.99
68366;BME280;55283;51.466;5.478;2022-12-18T13:14:52;102147.31;;;18.93;43.46
68366;BME280;55283;51.466;5.478;2022-12-18T13:19:50;102147.34;;;18.97;42.93
68366;BME280;55283;51.466;5.478;2022-12-18T13:22:31;102136.16;;;18.97;43.42
68366;BME280;55283;51.466;5.478;2022-12-18T13:24:59;102141.75;;;19.00;43.65
68366;BME280;55283;51.466;5.478;2022-12-18T13:41:04;102134.16;;;18.90;43.96
68366;BME280;55283;51.466;5.478;2022-12-18T13:43:57;102134.56;;;18.92;43.92
68366;BME280;55283;51.466;5.478;2022-12-18T13:46:51;102133.34;;;18.90;44.05
68366;BME280;55283;51.466;5.478;2022-12-18T13:49:41;102126.56;;;18.84;44.08
68366;BME280;55283;51.466;5.478;2022-12-18T13:52:22;102113.81;;;18.83;44.32
68366;BME280;55283;51.466;5.478;2022-12-18T13:54:57;102122.19;;;18.86;44.24
68366;BME280;55283;51.466;5.478;2022-12-18T13:57:36;102115.81;;;18.86;43.88
68366;BME280;55283;51.466;5.478;2022-12-18T14:00:26;102106.22;;;18.87;43.87
68366;BME280;55283;51.466;5.478;2022-12-18T14:02:55;102115.38;;;18.87;43.74
68366;BME280;55283;51.466;5.478;2022-12-18T14:05:24;102113.81;;;18.86;42.80
68366;BME280;55283;51.466;5.478;2022-12-18T14:07:51;102117.78;;;18.89;42.86
68366;BME280;55283;51.466;5.478;2022-12-18T14:10:20;102112.59;;;18.91;43.80
68366;BME280;55283;51.466;5.478;2022-12-18T14:12:48;102113.38;;;18.88;43.81
68366;BME280;55283;51.466;5.478;2022-12-18T14:17:57;102107.41;;;18.89;43.33
68366;BME280;55283;51.466;5.478;2022-12-18T14:20:33;102112.19;;;18.82;43.92
68366;BME280;55283;51.466;5.478;2022-12-18T14:22:59;102114.59;;;18.87;43.11
68366;BME280;55283;51.466;5.478;2022-12-18T14:25:31;102111.41;;;18.85;44.08
68366;BME280;55283;51.466;5.478;2022-12-18T14:28:13;102109.41;;;18.85;43.88
68366;BME280;55283;51.466;5.478;2022-12-18T14:30:45;102106.22;;;18.87;44.02
68366;BME280;55283;51.466;5.478;2022-12-18T14:33:12;102102.22;;;18.88;43.58
68366;BME280;55283;51.466;5.478;2022-12-18T14:35:41;102098.25;;;18.89;43.16
68366;BME280;55283;51.466;5.478;2022-12-18T14:40:57;102095.84;;;18.80;43.63
68366;BME280;55283;51.466;5.478;2022-12-18T14:43:23;102097.03;;;18.86;43.84
68366;BME280;55283;51.466;5.478;2022-12-18T14:45:52;102102.22;;;18.88;43.84
68366;BME280;55283;51.466;5.478;2022-12-18T14:48:44;102107.41;;;18.89;43.78
68366;BME280;55283;51.466;5.478;2022-12-18T14:53:43;102097.44;;;18.92;43.58
68366;BME280;55283;51.466;5.478;2022-12-18T14:56:18;102096.22;;;18.96;43.55